Time;durP1;ratioP1;P1;durP2;ratioP2;P2;SDS_P1;SDS_P2;PMS_P1;PMS_P2;Temp;Humidity;BMP_temperature;BMP_pressure;BME280_temperature;BME280_humidity;BME280_pressure;Samples;Min_cycle;Max_cycle;Signal;HPM_P1;HPM_P2
2023/01/05 00:02:21;;;;;;;19.33;12.05;;;;;;;7.59;98.70;100967.22;5003871;28;20040;-71
2023/01/05 00:04:46;;;;;;;23.73;12.60;;;;;;;7.60;98.60;100956.44;4997774;28;20044;-71
2023/01/05 00:07:12;;;;;;;16.80;11.38;;;;;;;7.61;98.45;100954.63;5000958;28;20113;-71
2023/01/05 00:09:37;;;;;;;16.38;12.07;;;;;;;7.67;98.06;100967.59;4993866;28;20041;-71
2023/01/05 00:23:06;;;;;;;18.42;12.50;;;;;;;7.68;96.84;100934.59;4998816;28;20566;-72
2023/01/05 00:25:35;;;;;;;24.02;14.40;;;;;;;7.76;96.80;100951.81;4996237;28;20030;-72
2023/01/05 00:28:01;;;;;;;17.05;12.73;;;;;;;7.72;96.34;100928.94;4995081;28;20498;-72
2023/01/05 00:30:29;;;;;;;17.88;12.63;;;;;;;7.78;94.93;100935.69;4999152;28;20034;-71
2023/01/05 00:32:55;;;;;;;17.38;11.40;;;;;;;7.82;95.45;100935.38;4988747;28;20034;-70
2023/01/05 00:35:22;;;;;;;15.75;11.77;;;;;;;7.73;95.58;100913.75;5001916;28;20033;-69
2023/01/05 00:37:48;;;;;;;20.52;13.25;;;;;;;7.87;94.94;100908.38;4993006;28;20639;-68
2023/01/05 00:40:16;;;;;;;19.08;13.70;;;;;;;7.69;94.18;100873.09;4993558;28;20030;-69
2023/01/05 00:42:41;;;;;;;17.67;13.07;;;;;;;7.91;94.71;100901.88;4989811;28;20169;-69
2023/01/05 00:45:10;;;;;;;16.75;12.30;;;;;;;7.87;94.84;100900.38;4996422;28;20077;-69
2023/01/05 00:47:35;;;;;;;18.02;12.90;;;;;;;7.80;94.08;100891.91;5005957;28;20494;-69
2023/01/05 00:50:01;;;;;;;19.40;12.80;;;;;;;7.91;94.26;100888.50;5008749;28;20037;-69
2023/01/05 00:52:27;;;;;;;20.00;12.98;;;;;;;7.95;93.33;100917.59;5003001;28;20037;-69
2023/01/05 00:54:52;;;;;;;15.70;11.80;;;;;;;7.83;94.08;100897.03;5002535;28;20566;-68
2023/01/05 00:57:18;;;;;;;19.23;12.70;;;;;;;7.85;94.18;100908.47;5001226;28;20068;-68
2023/01/05 00:59:43;;;;;;;20.33;11.98;;;;;;;7.83;93.49;100889.03;5007086;28;20033;-68
2023/01/05 01:02:09;;;;;;;21.73;13.73;;;;;;;7.92;94.01;100911.56;5009127;28;20034;-69
2023/01/05 01:04:34;;;;;;;23.42;15.57;;;;;;;7.87;94.03;100900.38;4995796;28;20029;-67
2023/01/05 01:07:01;;;;;;;19.52;13.75;;;;;;;7.94;94.33;100910.53;5006266;28;20030;-68
2023/01/05 01:09:27;;;;;;;18.23;13.00;;;;;;;7.88;94.52;100897.59;4996200;28;20113;-68
2023/01/05 01:11:52;;;;;;;19.33;13.95;;;;;;;7.91;94.91;100902.72;5004601;28;20038;-68
2023/01/05 01:14:18;;;;;;;20.45;14.18;;;;;;;7.91;94.69;100892.06;4996486;28;20034;-69
2023/01/05 01:16:44;;;;;;;21.45;14.30;;;;;;;7.92;94.04;100899.09;4998678;28;20456;-68
2023/01/05 01:19:22;;;;;;;19.70;14.13;;;;;;;7.92;94.77;100903.56;5001031;28;20022;-67
2023/01/05 01:21:47;;;;;;;21.75;14.70;;;;;;;7.92;95.27;100903.56;4995584;28;20154;-67
2023/01/05 01:24:16;;;;;;;22.63;15.00;;;;;;;7.92;94.63;100893.75;4998077;28;20033;-68
2023/01/05 01:26:41;;;;;;;21.45;13.25;;;;;;;7.96;94.63;100891.75;5003946;28;20029;-67
2023/01/05 01:29:07;;;;;;;18.85;13.95;;;;;;;7.85;94.87;100872.91;5006750;28;20494;-68
2023/01/05 01:31:34;;;;;;;22.80;15.38;;;;;;;7.96;94.94;100878.38;4999557;28;20044;-68
2023/01/05 01:34:00;;;;;;;20.90;14.55;;;;;;;7.95;94.07;100873.97;5005985;28;20033;-69
2023/01/05 01:36:26;;;;;;;25.65;15.00;;;;;;;8.03;93.84;100871.66;4996670;28;20033;-68
2023/01/05 01:38:51;;;;;;;20.83;14.82;;;;;;;7.98;93.27;100852.41;4999192;28;20575;-69
2023/01/05 01:41:16;;;;;;;22.08;14.13;;;;;;;8.03;94.02;100875.16;4999504;28;20108;-68
2023/01/05 01:43:53;;;;;;;23.40;15.60;;;;;;;8.04;94.36;100884.91;5003573;28;20053;-69
2023/01/05 01:46:20;;;;;;;21.60;14.55;;;;;;;8.03;94.10;100866.31;5004604;28;20045;-69
2023/01/05 01:48:55;;;;;;;24.83;16.23;;;;;;;8.04;94.01;100866.22;4999955;28;20436;-70
2023/01/05 01:51:45;;;;;;;26.10;16.55;;;;;;;8.04;94.81;100852.00;5002632;28;20084;-68
2023/01/05 01:54:16;;;;;;;25.13;16.38;;;;;;;8.07;93.56;100838.41;5000679;28;20042;-68
2023/01/05 01:56:48;;;;;;;23.20;15.98;;;;;;;8.05;93.88;100846.53;5022895;28;20056;-69
2023/01/05 01:59:16;;;;;;;25.25;15.52;;;;;;;8.10;94.15;100838.22;5015990;28;20045;-68
2023/01/05 02:01:41;;;;;;;26.73;16.23;;;;;;;8.09;93.88;100832.00;5019249;28;20501;-68
2023/01/05 02:04:08;;;;;;;24.60;15.82;;;;;;;8.14;93.27;100831.69;5022084;28;20038;-69
2023/01/05 02:06:34;;;;;;;30.55;17.23;;;;;;;8.07;93.86;100817.06;5018502;28;20025;-67
2023/01/05 02:09:00;;;;;;;22.60;16.00;;;;;;;7.95;94.16;100784.03;5018861;28;20053;-68
2023/01/05 02:11:33;;;;;;;27.75;16.40;;;;;;;7.97;94.39;100798.13;5012402;28;20790;-69
2023/01/05 02:14:26;;;;;;;27.67;17.13;;;;;;;8.10;93.70;100809.66;5014002;28;20052;-68
2023/01/05 02:16:54;;;;;;;24.67;16.75;;;;;;;8.07;94.10;100809.03;5016486;28;20567;-71
2023/01/05 02:20:01;;;;;;;25.48;16.77;;;;;;;8.11;94.03;100795.38;5023664;28;20383;-68
2023/01/05 02:22:48;;;;;;;24.73;15.85;;;;;;;7.98;94.12;100766.94;5020336;28;20117;-69
2023/01/05 02:25:22;;;;;;;23.65;15.80;;;;;;;8.08;94.22;100776.00;5023710;28;20033;-69
2023/01/05 02:28:06;;;;;;;;;;;;;;;8.07;94.49;100782.31;5014536;28;20041;-69
2023/01/05 02:31:09;;;;;;;27.00;16.00;;;;;;;8.09;94.61;100769.72;5015785;28;19919;-68
2023/01/05 02:33:53;;;;;;;22.25;14.82;;;;;;;8.11;95.14;100774.00;5024124;28;20029;-69
2023/01/05 02:36:26;;;;;;;25.77;16.25;;;;;;;8.11;96.32;100751.75;5018028;28;20044;-69
2023/01/05 02:39:03;;;;;;;28.20;16.83;;;;;;;8.11;95.95;100746.41;5025453;28;20391;-69
2023/01/05 02:41:49;;;;;;;25.33;15.85;;;;;;;8.15;95.82;100747.91;5019438;28;20549;-68
2023/01/05 02:44:18;;;;;;;22.75;15.80;;;;;;;8.20;95.57;100743.09;5011230;28;20492;-68
2023/01/05 02:46:45;;;;;;;22.33;15.05;;;;;;;8.15;96.13;100738.06;5024822;28;20436;-69
2023/01/05 02:49:16;;;;;;;27.42;15.95;;;;;;;8.08;96.32;100726.13;4996996;28;20383;-68
2023/01/05 02:51:48;;;;;;;24.85;16.80;;;;;;;8.15;96.75;100751.44;5006761;28;20034;-68
2023/01/05 02:54:45;;;;;;;22.92;15.20;;;;;;;8.17;96.81;100745.97;5024121;28;20068;-69
2023/01/05 02:57:45;;;;;;;22.42;14.80;;;;;;;8.09;96.63;100721.66;4960451;28;20546;-69
2023/01/05 03:00:09;;;;;;;24.30;16.20;;;;;;;8.16;97.24;100717.56;5021781;28;20047;-69
2023/01/05 03:02:37;;;;;;;25.02;16.77;;;;;;;8.09;96.80;100698.44;5025488;28;20033;-69
2023/01/05 03:05:12;;;;;;;24.88;16.05;;;;;;;8.10;96.64;100696.63;5014983;28;20491;-68
2023/01/05 03:07:41;;;;;;;23.77;15.20;;;;;;;7.99;97.00;100664.47;5012632;28;20372;-69
2023/01/05 03:15:41;;;;;;;22.48;15.40;;;;;;;8.24;97.20;100675.16;5011195;28;20091;-68
2023/01/05 03:18:10;;;;;;;22.13;15.88;;;;;;;8.21;97.86;100673.53;5009370;28;20033;-68
2023/01/05 03:20:40;;;;;;;24.42;16.15;;;;;;;8.14;98.53;100653.56;5014151;28;20030;-68
2023/01/05 03:37:54;;;;;;;24.38;15.27;;;;;;;8.18;100.00;100675.53;5021014;28;20068;-69
2023/01/05 03:40:27;;;;;;;21.80;16.10;;;;;;;8.19;100.00;100696.81;5012420;28;20037;-69
2023/01/05 03:42:54;;;;;;;25.33;16.45;;;;;;;8.14;100.00;100680.28;5014385;28;20035;-68
2023/01/05 03:45:21;;;;;;;27.98;16.77;;;;;;;8.11;100.00;100660.94;5013558;28;20100;-68
2023/01/05 03:47:46;;;;;;;22.55;14.60;;;;;;;8.06;100.00;100652.41;5008687;28;20076;-67
2023/01/05 03:50:12;;;;;;;26.85;16.55;;;;;;;7.95;100.00;100625.59;5009180;28;20527;-67
2023/01/05 03:52:37;;;;;;;25.02;17.08;;;;;;;8.06;100.00;100647.06;5018550;28;20461;-67
2023/01/05 03:55:03;;;;;;;23.02;15.40;;;;;;;8.07;100.00;100654.97;5011806;28;20073;-67
2023/01/05 03:57:28;;;;;;;24.65;16.42;;;;;;;8.04;100.00;100659.66;5016683;28;20044;-68
2023/01/05 03:59:54;;;;;;;23.50;15.98;;;;;;;8.03;100.00;100653.47;5011774;28;20522;-68
2023/01/05 04:02:19;;;;;;;26.17;15.77;;;;;;;7.98;100.00;100647.63;5017846;28;20095;-68
2023/01/05 04:04:45;;;;;;;24.15;16.77;;;;;;;8.08;100.00;100654.00;5019485;28;20041;-68
2023/01/05 04:07:10;;;;;;;23.65;15.75;;;;;;;8.07;100.00;100646.97;5012067;28;20056;-68
2023/01/05 04:09:35;;;;;;;26.83;16.77;;;;;;;8.01;100.00;100631.38;5018674;28;20025;-68
2023/01/05 04:12:01;;;;;;;24.70;16.85;;;;;;;7.97;100.00;100631.69;5014489;28;20476;-68
2023/01/05 04:14:26;;;;;;;24.73;16.13;;;;;;;8.00;100.00;100632.31;5017162;28;20433;-67
2023/01/05 04:16:52;;;;;;;25.05;16.45;;;;;;;7.98;100.00;100634.25;5018541;28;20037;-68
2023/01/05 04:19:17;;;;;;;27.77;17.20;;;;;;;8.02;100.00;100638.41;5016313;28;20030;-67
2023/01/05 04:21:42;;;;;;;23.17;16.02;;;;;;;8.00;100.00;100637.66;5017063;28;20495;-68
2023/01/05 04:24:09;;;;;;;22.20;15.30;;;;;;;7.95;100.00;100630.94;4991506;28;20487;-69
2023/01/05 04:26:36;;;;;;;21.42;14.95;;;;;;;8.20;100.00;100649.59;5000848;28;20464;-69
2023/01/05 04:29:03;;;;;;;27.27;16.42;;;;;;;8.21;100.00;100651.28;5013615;28;20040;-68
2023/01/05 04:31:28;;;;;;;24.23;16.30;;;;;;;8.08;100.00;100648.66;5016810;28;20040;-68
2023/01/05 04:33:54;;;;;;;26.65;16.20;;;;;;;7.99;100.00;100632.44;5022132;28;20049;-68
2023/01/05 04:36:19;;;;;;;22.98;14.82;;;;;;;8.04;100.00;100654.31;5017768;28;20031;-69
2023/01/05 04:38:45;;;;;;;23.80;16.30;;;;;;;8.01;100.00;100649.19;5018521;28;20033;-68
2023/01/05 04:41:10;;;;;;;27.15;16.48;;;;;;;8.29;100.00;100656.97;5020270;28;20065;-69
2023/01/05 04:43:36;;;;;;;23.02;16.98;;;;;;;8.22;100.00;100627.16;4999842;28;20028;-69
2023/01/05 04:46:01;;;;;;;28.88;17.67;;;;;;;8.20;100.00;100631.75;5012535;28;20049;-67
2023/01/05 04:48:27;;;;;;;27.90;18.48;;;;;;;8.08;100.00;100624.63;5012969;28;20029;-68
2023/01/05 04:50:54;;;;;;;25.00;16.52;;;;;;;8.00;100.00;100615.47;5014492;28;20118;-68
2023/01/05 04:53:19;;;;;;;22.80;14.82;;;;;;;8.05;100.00;100622.16;5016491;28;20034;-68
2023/01/05 04:55:45;;;;;;;22.58;15.75;;;;;;;7.99;100.00;100635.09;5014397;28;20395;-68
2023/01/05 04:58:10;;;;;;;27.90;15.20;;;;;;;7.99;100.00;100627.94;5012374;28;20026;-68
2023/01/05 05:00:36;;;;;;;21.27;15.85;;;;;;;7.94;100.00;100630.13;4996455;28;20022;-69
2023/01/05 05:03:01;;;;;;;23.00;15.10;;;;;;;7.86;100.00;100626.25;5011155;28;20033;-68
2023/01/05 05:05:27;;;;;;;22.58;16.05;;;;;;;7.78;100.00;100620.63;5002102;28;20169;-69
2023/01/05 05:07:52;;;;;;;23.88;15.10;;;;;;;7.66;100.00;100602.81;5015180;28;20029;-69
2023/01/05 05:10:18;;;;;;;24.02;15.40;;;;;;;7.84;100.00;100637.06;5012434;28;20501;-69
2023/01/05 05:12:44;;;;;;;22.58;16.65;;;;;;;7.84;100.00;100660.25;5013716;28;20084;-68
2023/01/05 05:15:10;;;;;;;22.48;15.45;;;;;;;7.90;100.00;100668.66;5008945;28;20038;-69
2023/01/05 05:17:35;;;;;;;24.92;17.33;;;;;;;7.77;100.00;100624.28;5022324;28;20384;-68
2023/01/05 05:20:00;;;;;;;24.02;15.88;;;;;;;7.81;100.00;100639.97;5007072;28;20053;-69
2023/01/05 05:22:27;;;;;;;21.55;15.65;;;;;;;7.75;100.00;100627.06;5023370;28;20036;-69
2023/01/05 05:24:52;;;;;;;25.50;16.35;;;;;;;7.70;100.00;100617.66;5024353;28;20025;-69
2023/01/05 05:27:18;;;;;;;23.92;17.25;;;;;;;7.78;100.00;100621.50;5024071;28;20637;-69
2023/01/05 05:29:43;;;;;;;25.08;17.17;;;;;;;7.81;100.00;100631.09;5011340;28;20041;-67
2023/01/05 05:32:09;;;;;;;24.42;16.70;;;;;;;7.77;100.00;100626.94;5026126;28;20025;-68
2023/01/05 05:34:34;;;;;;;24.50;16.25;;;;;;;7.75;100.00;100623.50;5001951;28;20083;-69
2023/01/05 05:36:59;;;;;;;21.52;15.48;;;;;;;7.73;100.00;100612.09;5016501;28;20034;-69
2023/01/05 05:39:25;;;;;;;22.83;16.40;;;;;;;7.73;100.00;100615.63;5016702;28;20040;-69
2023/01/05 05:41:50;;;;;;;24.02;17.00;;;;;;;7.74;100.00;100601.28;5017161;28;20155;-70
2023/01/05 05:44:16;;;;;;;25.27;16.55;;;;;;;7.68;100.00;100587.56;5017268;28;20026;-70
2023/01/05 05:46:41;;;;;;;26.60;17.58;;;;;;;7.72;100.00;100589.91;4994579;28;20033;-70
2023/01/05 05:49:07;;;;;;;26.48;16.20;;;;;;;7.74;100.00;100592.44;5026074;28;20108;-67
2023/01/05 05:51:33;;;;;;;27.02;18.25;;;;;;;7.73;100.00;100596.06;5013360;28;20026;-69
2023/01/05 05:53:59;;;;;;;25.85;18.00;;;;;;;7.65;100.00;100583.28;5015829;28;20052;-69
2023/01/05 05:56:24;;;;;;;26.00;17.80;;;;;;;7.73;100.00;100601.41;5015427;28;20037;-68
2023/01/05 05:58:49;;;;;;;26.30;17.20;;;;;;;7.85;100.00;100617.41;5007850;28;20051;-69
2023/01/05 06:01:16;;;;;;;26.33;17.17;;;;;;;7.74;100.00;100611.16;5010029;28;20034;-68
2023/01/05 06:03:41;;;;;;;25.40;16.65;;;;;;;7.75;100.00;100620.84;5018187;28;20045;-69
2023/01/05 06:06:07;;;;;;;28.30;17.70;;;;;;;7.55;100.00;100603.59;5010102;28;20067;-69
2023/01/05 06:08:32;;;;;;;26.17;17.70;;;;;;;7.75;100.00;100642.22;5017284;28;20044;-69
2023/01/05 06:10:58;;;;;;;25.52;17.50;;;;;;;7.72;100.00;100642.41;5023537;28;20116;-68
2023/01/05 06:13:24;;;;;;;23.63;17.25;;;;;;;7.60;100.00;100621.94;5018047;28;20399;-69
2023/01/05 06:15:50;;;;;;;25.48;17.92;;;;;;;7.68;100.00;100651.63;5016566;28;20033;-69
2023/01/05 06:18:16;;;;;;;25.88;17.27;;;;;;;7.73;100.00;100641.44;5014023;28;20025;-69
2023/01/05 06:20:41;;;;;;;24.95;17.55;;;;;;;7.69;100.00;100638.16;5022129;28;20025;-68
2023/01/05 06:23:07;;;;;;;27.25;17.05;;;;;;;7.70;100.00;100639.84;5015283;28;20029;-69
2023/01/05 06:25:33;;;;;;;26.05;17.27;;;;;;;7.75;100.00;100631.53;5015106;28;20135;-68
2023/01/05 06:27:59;;;;;;;30.80;19.20;;;;;;;7.76;100.00;100625.22;5020929;28;20056;-69
2023/01/05 06:30:25;;;;;;;28.88;18.35;;;;;;;7.70;100.00;100634.53;4999997;28;20053;-69
2023/01/05 06:32:51;;;;;;;25.05;17.40;;;;;;;7.70;100.00;100639.03;5014665;28;20033;-68
2023/01/05 06:35:16;;;;;;;26.02;17.98;;;;;;;7.58;100.00;100627.38;5020205;28;20025;-68
2023/01/05 06:37:42;;;;;;;29.30;18.60;;;;;;;7.64;100.00;100618.09;5020847;28;20389;-69
2023/01/05 06:40:10;;;;;;;24.67;18.45;;;;;;;7.57;100.00;100623.00;4998451;28;20030;-69
2023/01/05 06:42:36;;;;;;;23.25;16.85;;;;;;;7.72;100.00;100621.06;5007530;28;20037;-69
2023/01/05 06:45:01;;;;;;;28.55;17.42;;;;;;;7.73;100.00;100636.09;5017856;28;20099;-69
2023/01/05 06:47:28;;;;;;;25.73;18.08;;;;;;;7.67;100.00;100626.72;5020721;28;20049;-69
2023/01/05 06:49:53;;;;;;;29.88;18.10;;;;;;;7.65;100.00;100609.13;5020951;28;20088;-68
2023/01/05 06:52:19;;;;;;;27.20;18.05;;;;;;;7.65;100.00;100601.13;5017229;28;20026;-68
2023/01/05 06:54:44;;;;;;;27.83;17.70;;;;;;;7.66;100.00;100565.44;5012723;28;20057;-68
2023/01/05 06:57:10;;;;;;;28.10;18.05;;;;;;;7.65;100.00;100558.41;5011372;28;20072;-68
2023/01/05 06:59:35;;;;;;;27.98;16.52;;;;;;;7.67;100.00;100551.97;4993896;28;20048;-68
2023/01/05 07:02:01;;;;;;;27.35;17.58;;;;;;;7.70;100.00;100546.44;4994766;28;20048;-69
2023/01/05 07:04:26;;;;;;;29.15;17.58;;;;;;;7.69;100.00;100552.75;5025574;28;20052;-70
2023/01/05 07:06:52;;;;;;;25.55;16.58;;;;;;;7.63;100.00;100541.63;5019334;28;20040;-67
2023/01/05 07:09:17;;;;;;;25.67;17.35;;;;;;;7.73;100.00;100551.53;5011335;28;20036;-68
2023/01/05 07:11:43;;;;;;;25.10;18.23;;;;;;;7.75;100.00;100540.75;5006247;28;20033;-68
2023/01/05 07:14:09;;;;;;;25.25;17.63;;;;;;;7.69;100.00;100522.50;5008701;28;20029;-69
2023/01/05 07:16:34;;;;;;;27.42;18.25;;;;;;;7.84;100.00;100530.25;5020043;28;20076;-69
2023/01/05 07:18:59;;;;;;;24.50;17.15;;;;;;;7.82;100.00;100526.00;5023193;28;20128;-68
2023/01/05 07:21:25;;;;;;;24.90;17.17;;;;;;;7.73;100.00;100510.63;5005517;28;20029;-67
2023/01/05 07:23:50;;;;;;;26.63;17.75;;;;;;;7.77;100.00;100504.13;5022686;28;20400;-68
2023/01/05 07:26:16;;;;;;;25.13;16.77;;;;;;;7.86;100.00;100506.97;5009972;28;20021;-68
2023/01/05 07:28:41;;;;;;;24.75;16.45;;;;;;;7.84;100.00;100497.38;5009598;28;20030;-68
2023/01/05 07:31:07;;;;;;;25.33;16.50;;;;;;;7.86;100.00;100500.75;4993347;28;20034;-68
2023/01/05 07:33:32;;;;;;;26.00;17.23;;;;;;;7.89;100.00;100501.41;5015818;28;20022;-68
2023/01/05 07:36:03;;;;;;;26.45;16.80;;;;;;;7.86;100.00;100477.59;5005068;28;20120;-68
2023/01/05 07:38:28;;;;;;;25.98;17.25;;;;;;;8.04;100.00;100510.09;5025087;28;20064;-69
2023/01/05 07:40:58;;;;;;;22.73;16.15;;;;;;;8.02;100.00;100514.69;5019600;28;20068;-68
2023/01/05 07:43:23;;;;;;;29.83;17.88;;;;;;;7.91;100.00;100495.94;5023276;28;20051;-68
2023/01/05 07:45:49;;;;;;;27.08;17.95;;;;;;;8.01;100.00;100500.50;5014044;28;20479;-69
2023/01/05 07:48:14;;;;;;;26.80;18.73;;;;;;;8.03;100.00;100495.06;5011386;28;20061;-68
2023/01/05 07:50:40;;;;;;;26.50;17.45;;;;;;;8.05;100.00;100491.28;5004883;28;20100;-67
2023/01/05 07:53:05;;;;;;;26.20;16.25;;;;;;;8.12;100.00;100494.34;5018342;28;20033;-68
2023/01/05 07:55:30;;;;;;;24.90;16.95;;;;;;;8.10;100.00;100498.97;5012595;28;20033;-68
2023/01/05 07:57:56;;;;;;;22.13;15.50;;;;;;;8.13;100.00;100491.56;5011173;28;20026;-68
2023/01/05 08:00:21;;;;;;;21.98;15.60;;;;;;;8.06;100.00;100474.28;5019616;28;20025;-69
2023/01/05 08:02:47;;;;;;;22.83;15.60;;;;;;;8.07;100.00;100467.13;5009045;28;20036;-69
2023/01/05 08:05:12;;;;;;;25.95;16.45;;;;;;;8.23;100.00;100494.44;5024839;28;20036;-69
2023/01/05 08:07:38;;;;;;;21.75;15.68;;;;;;;8.29;100.00;100486.78;5017109;28;20045;-69
2023/01/05 08:15:31;;;;;;;24.13;16.13;;;;;;;8.41;100.00;100468.97;5017040;28;19923;-69
2023/01/05 08:17:57;;;;;;;23.55;16.70;;;;;;;8.45;100.00;100478.47;5015565;28;20038;-69
2023/01/05 08:20:22;;;;;;;23.73;15.73;;;;;;;8.51;100.00;100483.34;5016364;28;20040;-69
2023/01/05 08:22:52;;;;;;;23.58;15.27;;;;;;;8.54;100.00;100472.41;5022866;28;20034;-69
2023/01/05 08:25:18;;;;;;;26.30;16.23;;;;;;;8.39;100.00;100447.72;5010977;28;20498;-69
2023/01/05 08:27:43;;;;;;;25.73;16.30;;;;;;;8.58;100.00;100485.41;5016624;28;20116;-69
2023/01/05 08:30:11;;;;;;;21.63;16.40;;;;;;;8.54;100.00;100472.41;5012991;28;20037;-69
2023/01/05 08:32:36;;;;;;;27.05;17.50;;;;;;;8.65;100.00;100475.94;4990130;28;20037;-69
2023/01/05 08:35:02;;;;;;;22.42;15.75;;;;;;;8.70;100.00;100468.44;4995707;28;20045;-69
2023/01/05 08:37:27;;;;;;;22.58;15.30;;;;;;;8.70;100.00;100465.75;5020089;28;20026;-68
2023/01/05 08:39:53;;;;;;;23.63;16.48;;;;;;;8.71;100.00;100464.78;5017217;28;20119;-69
2023/01/05 08:42:18;;;;;;;19.75;14.80;;;;;;;8.92;100.00;100471.16;5009244;28;20033;-69
2023/01/05 08:44:44;;;;;;;22.00;15.85;;;;;;;8.95;100.00;100475.41;4986510;28;20079;-69
2023/01/05 08:47:09;;;;;;;21.13;16.00;;;;;;;8.97;100.00;100468.94;5016412;28;20164;-69
2023/01/05 08:49:34;;;;;;;21.23;15.38;;;;;;;8.99;100.00;100468.81;5016512;28;20018;-68
2023/01/05 08:52:00;;;;;;;24.27;16.17;;;;;;;8.93;100.00;100454.13;4996615;28;20493;-68
2023/01/05 08:54:25;;;;;;;21.38;15.10;;;;;;;9.04;100.00;100455.94;5023827;28;20183;-68
2023/01/05 08:56:51;;;;;;;23.48;15.75;;;;;;;9.07;100.00;100458.38;5023837;28;20029;-69
2023/01/05 08:59:17;;;;;;;24.65;16.65;;;;;;;9.13;100.00;100466.75;4995287;28;20483;-69
2023/01/05 09:01:43;;;;;;;24.35;15.77;;;;;;;9.15;100.00;100450.59;5016180;28;20215;-69
2023/01/05 09:04:08;;;;;;;22.35;14.90;;;;;;;9.19;100.00;100447.53;5015431;28;20415;-69
2023/01/05 09:06:34;;;;;;;21.10;15.27;;;;;;;9.24;100.00;100457.88;5010520;28;20025;-70
2023/01/05 09:09:00;;;;;;;20.45;15.10;;;;;;;9.39;100.00;100464.69;5017623;28;20033;-69
2023/01/05 09:11:25;;;;;;;21.05;14.90;;;;;;;9.42;100.00;100471.63;5014764;28;20166;-69
2023/01/05 09:13:53;;;;;;;24.85;16.90;;;;;;;9.43;100.00;100470.63;5001332;28;20059;-69
2023/01/05 09:16:22;;;;;;;23.42;15.15;;;;;;;9.45;100.00;100464.19;5014945;28;20033;-69
2023/01/05 09:18:48;;;;;;;22.65;15.82;;;;;;;9.69;100.00;100469.38;5007340;28;20461;-68
2023/01/05 09:21:13;;;;;;;21.63;15.07;;;;;;;9.64;100.00;100477.78;5012965;28;20078;-69
2023/01/05 09:23:39;;;;;;;20.55;15.13;;;;;;;9.71;100.00;100468.28;5027236;28;20112;-69
2023/01/05 09:26:09;;;;;;;20.70;15.13;;;;;;;9.63;100.00;100445.75;5007983;28;20029;-68
2023/01/05 09:28:36;;;;;;;21.42;15.02;;;;;;;9.71;100.00;100457.56;5009671;28;20061;-68
2023/01/05 09:31:12;;;;;;;22.88;14.38;;;;;;;9.71;100.00;100457.56;5007444;28;20045;-69
2023/01/05 09:33:39;;;;;;;18.67;13.98;;;;;;;9.84;100.00;100468.97;5024527;28;20091;-66
2023/01/05 09:36:05;;;;;;;18.73;14.25;;;;;;;9.95;99.80;100482.31;4990353;28;20080;-67
2023/01/05 09:38:31;;;;;;;20.35;13.82;;;;;;;10.05;99.01;100464.50;5027030;28;20513;-67
2023/01/05 09:41:03;;;;;;;19.73;13.82;;;;;;;10.23;98.35;100472.88;5019730;28;20038;-68
2023/01/05 09:43:34;;;;;;;21.25;13.27;;;;;;;10.12;98.73;100457.69;4998835;28;20037;-68
2023/01/05 09:46:02;;;;;;;19.38;13.02;;;;;;;10.10;98.54;100434.69;5023509;28;20030;-68
2023/01/05 09:48:34;;;;;;;17.55;12.95;;;;;;;10.06;99.38;100434.06;5013143;28;20552;-66
2023/01/05 09:50:59;;;;;;;18.55;13.10;;;;;;;10.01;99.97;100425.56;5027543;28;20088;-66
2023/01/05 09:53:28;;;;;;;20.40;12.85;;;;;;;10.01;100.00;100427.38;5016244;28;20026;-68
2023/01/05 09:55:55;;;;;;;18.48;12.52;;;;;;;9.96;100.00;100419.72;5010012;28;20122;-68
2023/01/05 09:58:25;;;;;;;17.63;12.20;;;;;;;9.92;100.00;100399.53;5026128;28;20026;-69
2023/01/05 10:01:06;;;;;;;19.40;12.75;;;;;;;10.10;99.02;100410.56;5025793;28;20036;-68
2023/01/05 10:03:39;;;;;;;17.52;12.20;;;;;;;10.07;99.37;100419.72;5022344;28;20112;-68
2023/01/05 10:06:11;;;;;;;21.20;13.55;;;;;;;10.06;99.80;100423.34;5014262;28;20044;-68
2023/01/05 10:08:45;;;;;;;19.63;12.82;;;;;;;10.13;99.38;100411.13;5015357;28;20033;-68
2023/01/05 10:14:09;;;;;;;17.67;12.63;;;;;;;9.95;99.99;100409.13;5023418;28;20040;-68
2023/01/05 10:16:34;;;;;;;;;;;;;;;9.97;99.75;100405.38;5014308;28;20030;-68
2023/01/05 10:19:01;;;;;;;19.73;12.43;;;;;;;9.89;99.71;100383.72;5018391;28;19913;-69
2023/01/05 10:21:53;;;;;;;17.10;13.10;;;;;;;10.12;98.79;100385.31;5019211;28;20045;-69
2023/01/05 10:24:30;;;;;;;18.50;11.90;;;;;;;10.02;99.68;100376.34;5009767;28;20054;-69
2023/01/05 10:27:02;;;;;;;19.50;13.23;;;;;;;10.06;99.61;100367.09;5015035;28;20341;-68
2023/01/05 10:29:39;;;;;;;16.85;12.32;;;;;;;10.02;99.81;100354.03;5008785;28;20025;-68
2023/01/05 10:32:27;;;;;;;21.40;12.55;;;;;;;10.12;99.04;100368.41;5025360;28;20099;-68
2023/01/05 10:34:57;;;;;;;18.02;11.80;;;;;;;10.19;98.63;100383.00;5009479;28;20040;-68
2023/01/05 10:37:25;;;;;;;17.42;12.45;;;;;;;10.33;97.88;100380.84;5010729;28;20037;-68
2023/01/05 10:39:59;;;;;;;18.05;12.40;;;;;;;10.23;98.14;100387.09;5016338;28;20022;-68
2023/01/05 10:42:25;;;;;;;17.63;12.07;;;;;;;10.26;98.30;100392.19;4991862;28;20051;-67
2023/01/05 10:44:54;;;;;;;19.35;12.98;;;;;;;10.38;97.55;100404.56;4997843;28;20116;-68
2023/01/05 10:47:21;;;;;;;18.20;12.55;;;;;;;10.22;98.49;100405.00;5015954;28;20604;-68
2023/01/05 10:49:47;;;;;;;21.42;13.68;;;;;;;10.14;99.31;100402.13;5017305;28;20037;-69
2023/01/05 10:52:18;;;;;;;17.77;12.95;;;;;;;10.24;98.74;100386.13;5010568;28;20041;-68
2023/01/05 10:54:52;;;;;;;17.23;11.65;;;;;;;10.14;99.46;100386.06;5007577;28;20116;-68
2023/01/05 10:57:30;;;;;;;18.85;12.68;;;;;;;10.33;98.74;100379.97;5022485;28;20379;-68
2023/01/05 11:00:02;;;;;;;18.98;13.63;;;;;;;10.38;98.12;100385.81;5023951;28;20063;-69
2023/01/05 11:02:30;;;;;;;17.50;12.43;;;;;;;10.26;98.92;100360.03;5003619;28;20038;-69
2023/01/05 11:05:10;;;;;;;19.38;13.05;;;;;;;10.32;99.28;100368.38;5020382;28;20053;-68
2023/01/05 11:08:11;;;;;;;17.48;12.48;;;;;;;10.33;98.78;100364.75;5022774;28;20723;-67
2023/01/05 11:10:51;;;;;;;17.65;12.50;;;;;;;10.30;99.68;100358.78;5002460;28;20049;-68
2023/01/05 11:13:32;;;;;;;17.92;12.52;;;;;;;10.38;100.00;100359.81;5016582;28;20021;-67
2023/01/05 11:16:08;;;;;;;18.25;12.65;;;;;;;10.36;99.88;100359.13;4995186;28;20662;-68
2023/01/05 11:18:45;;;;;;;16.67;12.68;;;;;;;10.31;100.00;100355.97;5009598;28;21733;-68
2023/01/05 11:21:15;;;;;;;19.23;13.23;;;;;;;10.37;100.00;100344.72;5010158;28;20029;-68
2023/01/05 11:23:43;;;;;;;19.67;12.32;;;;;;;10.38;100.00;100338.38;5012230;28;20052;-68
2023/01/05 11:26:18;;;;;;;18.50;12.00;;;;;;;10.41;100.00;100356.88;4997188;28;20037;-69
2023/01/05 11:29:08;;;;;;;16.83;11.90;;;;;;;10.52;100.00;100346.09;4991772;28;20057;-69
2023/01/05 11:31:53;;;;;;;19.13;12.63;;;;;;;10.66;99.66;100350.22;5020508;28;20487;-68
2023/01/05 11:34:40;;;;;;;16.52;12.30;;;;;;;10.55;100.00;100324.34;5013451;28;20104;-69
2023/01/05 11:37:08;;;;;;;16.13;11.80;;;;;;;10.56;100.00;100314.47;5003407;28;20535;-68
2023/01/05 11:39:40;;;;;;;20.88;13.48;;;;;;;10.65;100.00;100309.16;5005237;28;20044;-69
2023/01/05 11:42:15;;;;;;;14.88;12.00;;;;;;;10.53;100.00;100304.88;5019070;28;20121;-70
2023/01/05 11:44:47;;;;;;;18.73;13.13;;;;;;;10.66;100.00;100321.59;5005034;28;20029;-70
2023/01/05 11:47:31;;;;;;;19.08;12.48;;;;;;;10.79;100.00;100335.63;5024022;28;20116;-69
2023/01/05 11:50:13;;;;;;;17.75;12.95;;;;;;;10.96;100.00;100344.81;5024720;28;20036;-69
2023/01/05 11:52:44;;;;;;;17.55;11.50;;;;;;;11.28;97.21;100342.78;5016540;28;20037;-69
2023/01/05 11:55:19;;;;;;;19.10;11.82;;;;;;;11.28;97.47;100343.66;5006256;28;20090;-69
2023/01/05 11:57:50;;;;;;;13.85;10.40;;;;;;;11.24;97.19;100338.69;5022614;28;20026;-68
2023/01/05 12:00:27;;;;;;;18.25;11.15;;;;;;;11.29;96.39;100341.84;5015823;28;20084;-69